Time;durP1;ratioP1;P1;durP2;ratioP2;P2;SDS_P1;SDS_P2;PMS_P1;PMS_P2;Temp;Humidity;BMP_temperature;BMP_pressure;BME280_temperature;BME280_humidity;BME280_pressure;Samples;Min_cycle;Max_cycle;Signal;HPM_P1;HPM_P2
2022/09/16 00:00:35;;;;;;;7.05;0.88;;;11.70;99.90;;;;;;5086484;28;20036;-73
2022/09/16 00:03:02;;;;;;;8.93;1.05;;;11.70;99.90;;;;;;5087989;28;20123;-73
2022/09/16 00:05:28;;;;;;;3.95;0.65;;;11.80;99.90;;;;;;5091320;28;20048;-73
2022/09/16 00:07:54;;;;;;;3.40;0.75;;;11.70;99.90;;;;;;5090717;28;20048;-74
2022/09/16 00:10:20;;;;;;;6.53;0.90;;;11.70;99.90;;;;;;5090521;28;20108;-74
2022/09/16 00:12:46;;;;;;;4.75;0.90;;;11.70;99.90;;;;;;5089715;28;20058;-74
2022/09/16 00:15:12;;;;;;;5.05;0.60;;;11.60;99.90;;;;;;5089801;28;20377;-74
2022/09/16 00:17:38;;;;;;;3.40;0.47;;;11.60;99.90;;;;;;5122881;27;20040;-74
2022/09/16 00:20:05;;;;;;;4.82;0.52;;;12.40;99.90;;;;;;5072791;28;20173;-74
2022/09/16 00:22:31;;;;;;;4.93;0.52;;;11.60;99.90;;;;;;5091085;28;20036;-74
2022/09/16 00:24:57;;;;;;;4.40;0.43;;;12.80;99.90;;;;;;5090407;28;20089;-74
2022/09/16 00:27:22;;;;;;;3.15;0.52;;;11.60;99.90;;;;;;5072454;28;20314;-75
2022/09/16 00:29:48;;;;;;;5.50;0.40;;;13.20;99.90;;;;;;5090634;28;20086;-74
2022/09/16 00:32:13;;;;;;;5.18;0.73;;;11.60;99.90;;;;;;5071690;28;20036;-74
2022/09/16 00:34:39;;;;;;;4.93;0.63;;;11.60;99.90;;;;;;5090894;28;20074;-73
2022/09/16 00:37:07;;;;;;;3.42;0.70;;;11.60;99.90;;;;;;5090753;28;20605;-72
2022/09/16 00:39:34;;;;;;;4.07;0.63;;;11.60;99.90;;;;;;5086025;28;20101;-73
2022/09/16 00:42:01;;;;;;;8.27;1.10;;;11.50;99.90;;;;;;5072058;28;20040;-73
2022/09/16 00:44:59;;;;;;;3.55;0.40;;;11.40;99.90;;;;;;5083738;28;20610;-73
2022/09/16 00:47:27;;;;;;;3.25;0.40;;;11.50;99.90;;;;;;5085465;28;20071;-73
2022/09/16 00:49:59;;;;;;;0.77;0.20;;;11.10;99.90;;;;;;5090012;28;20430;-73
2022/09/16 00:52:27;;;;;;;2.67;0.35;;;11.50;99.90;;;;;;5089961;28;20119;-73
2022/09/16 00:54:53;;;;;;;2.78;0.38;;;11.70;99.90;;;;;;5071916;28;20496;-73
2022/09/16 00:57:19;;;;;;;4.00;0.40;;;12.00;99.90;;;;;;5090306;28;20050;-73
2022/09/16 00:59:53;;;;;;;3.70;0.55;;;11.50;99.90;;;;;;5088431;28;20036;-73
2022/09/16 01:02:20;;;;;;;7.55;0.88;;;11.40;99.90;;;;;;5065868;28;20047;-73
2022/09/16 01:04:59;;;;;;;2.70;0.50;;;11.50;99.90;;;;;;5088776;28;20040;-73
2022/09/16 01:07:46;;;;;;;3.17;0.73;;;11.40;99.90;;;;;;5084071;28;20040;-73
2022/09/16 01:10:18;;;;;;;5.60;0.82;;;11.40;99.90;;;;;;5084693;28;20086;-73
2022/09/16 01:12:48;;;;;;;4.38;0.40;;;11.40;99.90;;;;;;5088528;28;20151;-73
2022/09/16 01:15:16;;;;;;;3.97;0.55;;;11.40;99.90;;;;;;5088691;28;20043;-74
2022/09/16 01:18:13;;;;;;;3.20;0.50;;;11.40;99.90;;;;;;5089562;28;20105;-74
2022/09/16 01:21:00;;;;;;;3.13;0.63;;;11.40;99.90;;;;;;5089240;28;20040;-73
2022/09/16 01:23:46;;;;;;;3.15;0.35;;;11.40;99.90;;;;;;5089543;28;20071;-73
2022/09/16 01:26:36;;;;;;;6.00;0.65;;;11.40;99.90;;;;;;5081285;28;20032;-73
2022/09/16 01:29:08;;;;;;;4.88;0.52;;;12.30;99.90;;;;;;5070780;28;20058;-73
2022/09/16 01:31:54;;;;;;;2.45;0.52;;;11.40;99.90;;;;;;5089583;28;20499;-73
2022/09/16 01:34:36;;;;;;;3.85;0.60;;;11.30;99.90;;;;;;5087718;28;20040;-73
2022/09/16 01:37:13;;;;;;;4.15;0.52;;;11.30;99.90;;;;;;5089380;28;20036;-73
2022/09/16 01:40:14;;;;;;;2.53;0.52;;;11.30;99.90;;;;;;5086082;28;20093;-73
2022/09/16 01:43:03;;;;;;;3.22;0.43;;;11.40;99.90;;;;;;5085867;28;20066;-73
2022/09/16 01:45:37;;;;;;;5.78;0.60;;;11.40;99.90;;;;;;5083031;28;20044;-73
2022/09/16 01:48:26;;;;;;;2.60;0.32;;;11.40;99.90;;;;;;5087216;28;20089;-73
2022/09/16 01:51:03;;;;;;;4.05;0.40;;;11.40;99.90;;;;;;5070840;28;20093;-73
2022/09/16 01:53:40;;;;;;;3.80;0.30;;;11.40;99.90;;;;;;5089378;28;20101;-73
2022/09/16 01:56:31;;;;;;;1.73;0.43;;;11.40;99.90;;;;;;5112670;27;20036;-73
2022/09/16 01:59:04;;;;;;;2.25;0.35;;;11.30;99.90;;;;;;5087695;28;20072;-73
2022/09/16 02:01:53;;;;;;;3.97;0.50;;;11.30;99.90;;;;;;5087820;28;20065;-73
2022/09/16 02:04:27;;;;;;;2.75;0.80;;;11.30;99.90;;;;;;5064284;28;20048;-73
2022/09/16 02:06:56;;;;;;;3.25;0.60;;;11.20;99.90;;;;;;5087430;28;20079;-73
2022/09/16 02:09:29;;;;;;;4.93;0.73;;;11.20;99.90;;;;;;5087330;28;20113;-73
2022/09/16 02:11:57;;;;;;;3.25;0.50;;;11.20;99.90;;;;;;5088642;28;20471;-74
2022/09/16 02:14:28;;;;;;;2.60;0.20;;;11.20;99.90;;;;;;5088984;28;20429;-74
2022/09/16 02:17:09;;;;;;;5.88;0.60;;;11.20;99.90;;;;;;5087943;28;20036;-74
2022/09/16 02:19:43;;;;;;;8.63;0.65;;;11.20;99.90;;;;;;5070713;28;20036;-74
2022/09/16 02:22:12;;;;;;;4.77;0.60;;;11.20;99.90;;;;;;5083469;28;20040;-74
2022/09/16 02:24:41;;;;;;;7.85;0.80;;;11.40;99.90;;;;;;5085592;28;20040;-74
2022/09/16 02:27:12;;;;;;;6.45;0.80;;;11.10;99.90;;;;;;5086712;28;20120;-74
2022/09/16 02:29:52;;;;;;;4.88;0.60;;;11.10;99.90;;;;;;5087153;28;20032;-74
2022/09/16 02:32:21;;;;;;;12.02;0.73;;;11.10;99.90;;;;;;5065624;28;20127;-74
2022/09/16 02:34:49;;;;;;;4.43;0.80;;;11.10;99.90;;;;;;5087249;28;20043;-74
2022/09/16 02:37:32;;;;;;;7.55;1.20;;;11.10;99.90;;;;;;5069262;28;20040;-73
2022/09/16 02:40:04;;;;;;;4.80;0.75;;;11.10;99.90;;;;;;5088158;28;20074;-74
2022/09/16 02:42:31;;;;;;;6.95;0.90;;;11.10;99.90;;;;;;5086844;28;20110;-74
2022/09/16 02:44:58;;;;;;;4.85;0.90;;;11.10;99.90;;;;;;5079413;28;20036;-74
2022/09/16 02:47:58;;;;;;;2.28;0.40;;;11.10;99.90;;;;;;5069543;28;20039;-74
2022/09/16 02:50:29;;;;;;;4.88;0.50;;;11.10;99.90;;;;;;5067174;28;20101;-73
2022/09/16 02:53:10;;;;;;;6.45;0.80;;;11.10;99.90;;;;;;5085754;28;20040;-74
2022/09/16 02:55:38;;;;;;;7.28;0.43;;;11.10;99.90;;;;;;5082348;28;20075;-74
2022/09/16 02:58:05;;;;;;;6.45;0.55;;;11.10;99.90;;;;;;5086186;28;20044;-74
2022/09/16 03:00:34;;;;;;;5.95;0.60;;;12.00;99.90;;;;;;5081076;28;20039;-74
2022/09/16 03:03:01;;;;;;;4.18;0.57;;;11.20;99.90;;;;;;5086499;28;20044;-73
2022/09/16 03:05:30;;;;;;;4.63;0.90;;;11.10;99.90;;;;;;5087103;28;20122;-73
2022/09/16 03:07:57;;;;;;;4.32;0.88;;;11.00;99.90;;;;;;5087604;28;20051;-74
2022/09/16 03:10:26;;;;;;;4.22;0.70;;;11.20;99.90;;;;;;5086006;28;20036;-73
2022/09/16 03:13:11;;;;;;;7.15;0.90;;;11.00;99.90;;;;;;5088288;28;20051;-74
2022/09/16 03:15:49;;;;;;;3.42;1.17;;;10.90;99.90;;;;;;5088058;28;20510;-73
2022/09/16 03:18:37;;;;;;;3.45;0.57;;;10.80;99.90;;;;;;5077903;28;20040;-74
2022/09/16 03:21:12;;;;;;;8.50;1.13;;;10.80;99.90;;;;;;5086372;28;20044;-73
2022/09/16 03:24:00;;;;;;;6.60;1.15;;;10.80;99.90;;;;;;5069307;28;20143;-73
2022/09/16 03:26:46;;;;;;;4.82;0.50;;;10.80;99.90;;;;;;5080893;28;20051;-74
2022/09/16 03:29:25;;;;;;;5.47;0.50;;;10.80;99.90;;;;;;5087758;28;20391;-74
2022/09/16 03:32:11;;;;;;;6.20;0.60;;;10.80;99.90;;;;;;5087686;28;20059;-73
2022/09/16 03:34:54;;;;;;;4.05;0.77;;;10.80;99.90;;;;;;5083017;28;20508;-73
2022/09/16 03:37:22;;;;;;;3.78;0.63;;;10.80;99.90;;;;;;5119438;27;20421;-73
2022/09/16 03:39:52;;;;;;;7.82;0.52;;;10.70;99.90;;;;;;5091736;28;20052;-73
2022/09/16 03:42:18;;;;;;;4.75;0.80;;;10.80;99.90;;;;;;5084792;28;20059;-73
2022/09/16 03:44:44;;;;;;;8.00;0.82;;;10.70;99.90;;;;;;5069956;28;20052;-74
2022/09/16 03:47:10;;;;;;;8.48;0.85;;;10.70;99.90;;;;;;5056076;28;20395;-74
2022/09/16 03:49:36;;;;;;;4.47;1.52;;;10.70;99.90;;;;;;5090496;28;20040;-73
2022/09/16 03:52:06;;;;;;;8.02;1.05;;;10.70;99.90;;;;;;5091826;28;20028;-73
2022/09/16 03:54:32;;;;;;;7.10;1.05;;;10.70;99.90;;;;;;5091092;28;20449;-74
2022/09/16 03:56:59;;;;;;;6.90;0.68;;;11.00;99.90;;;;;;5091185;28;20111;-73
2022/09/16 03:59:25;;;;;;;3.38;1.00;;;10.70;99.90;;;;;;5092001;28;20040;-73
2022/09/16 04:01:51;;;;;;;4.38;0.82;;;10.70;99.90;;;;;;5091119;28;20407;-74
2022/09/16 04:04:16;;;;;;;5.68;0.55;;;10.70;99.90;;;;;;5091713;28;20051;-74
2022/09/16 04:06:42;;;;;;;11.18;1.17;;;10.70;99.90;;;;;;5090779;28;20079;-74
2022/09/16 04:09:11;;;;;;;6.65;1.27;;;10.70;99.90;;;;;;5091858;28;20036;-74
2022/09/16 04:11:37;;;;;;;7.25;0.70;;;10.60;99.90;;;;;;5072976;28;20909;-74
2022/09/16 04:14:04;;;;;;;7.28;0.68;;;10.60;99.90;;;;;;5090725;28;20119;-73
2022/09/16 04:16:30;;;;;;;8.38;1.00;;;10.60;99.90;;;;;;5090178;28;20032;-73
2022/09/16 04:18:56;;;;;;;7.55;0.85;;;11.70;99.90;;;;;;5089916;28;20040;-73
2022/09/16 04:21:21;;;;;;;9.05;1.27;;;10.60;99.90;;;;;;5090913;28;20036;-73
2022/09/16 04:23:48;;;;;;;5.80;1.00;;;10.60;99.90;;;;;;5089831;28;20070;-73
2022/09/16 04:26:14;;;;;;;7.53;1.15;;;10.50;99.90;;;;;;5091092;28;20078;-73
2022/09/16 04:28:39;;;;;;;4.47;0.68;;;10.50;99.90;;;;;;5090691;28;20032;-73
2022/09/16 04:31:09;;;;;;;9.65;1.17;;;10.50;99.90;;;;;;5089470;28;20047;-73
2022/09/16 04:33:35;;;;;;;8.40;1.27;;;10.50;99.90;;;;;;5089763;28;20454;-73
2022/09/16 04:36:05;;;;;;;6.78;1.15;;;10.50;99.90;;;;;;5088976;28;20067;-73
2022/09/16 04:38:31;;;;;;;8.23;1.35;;;10.60;99.90;;;;;;5091369;28;20036;-73
2022/09/16 04:41:06;;;;;;;10.60;1.02;;;10.40;99.90;;;;;;5089176;28;20047;-73
2022/09/16 04:43:31;;;;;;;6.72;1.23;;;10.40;99.90;;;;;;5088656;28;20048;-73
2022/09/16 04:45:57;;;;;;;9.40;1.00;;;10.40;99.90;;;;;;5089103;28;20059;-73
2022/09/16 04:48:24;;;;;;;8.43;0.93;;;10.30;99.90;;;;;;5090152;28;20137;-73
2022/09/16 04:50:51;;;;;;;8.15;1.63;;;11.20;99.90;;;;;;5072220;28;20135;-73
2022/09/16 04:53:17;;;;;;;7.40;1.00;;;10.30;99.90;;;;;;5090863;28;20097;-74
2022/09/16 04:55:43;;;;;;;12.93;1.88;;;10.20;99.90;;;;;;5089837;28;20135;-73
2022/09/16 04:58:08;;;;;;;13.48;1.77;;;10.30;99.90;;;;;;5088388;28;20115;-73
2022/09/16 05:00:34;;;;;;;8.68;1.45;;;10.30;99.90;;;;;;5072648;28;20052;-73
2022/09/16 05:02:59;;;;;;;9.43;1.08;;;11.40;99.90;;;;;;5088607;28;20495;-73
2022/09/16 05:05:25;;;;;;;7.30;1.02;;;10.30;99.90;;;;;;5090795;28;20040;-73
2022/09/16 05:07:51;;;;;;;6.68;1.65;;;10.30;99.90;;;;;;5072608;28;20036;-73
2022/09/16 05:10:17;;;;;;;10.45;1.95;;;11.30;99.90;;;;;;5088332;28;20281;-73
2022/09/16 05:12:42;;;;;;;13.65;2.03;;;10.30;99.90;;;;;;5071939;28;20051;-73
2022/09/16 05:15:08;;;;;;;4.35;1.55;;;10.30;99.90;;;;;;5089101;28;20222;-73
2022/09/16 05:17:34;;;;;;;11.10;1.13;;;10.20;99.90;;;;;;5122224;27;20047;-73
2022/09/16 05:20:00;;;;;;;7.00;1.13;;;10.20;99.90;;;;;;5090093;28;20040;-73
2022/09/16 05:22:25;;;;;;;12.85;1.40;;;10.20;99.90;;;;;;5071832;28;20422;-73
2022/09/16 05:24:51;;;;;;;19.90;5.25;;;10.20;99.90;;;;;;5088218;28;20051;-73
2022/09/16 05:27:17;;;;;;;13.43;5.45;;;10.20;99.90;;;;;;5088597;28;20489;-73
2022/09/16 05:29:42;;;;;;;9.98;2.10;;;10.30;99.90;;;;;;5105786;28;20477;-73
2022/09/16 05:32:08;;;;;;;8.82;1.15;;;10.30;99.90;;;;;;5087779;28;20094;-73
2022/09/16 05:34:35;;;;;;;12.00;1.40;;;10.30;99.90;;;;;;5088975;28;20039;-73
2022/09/16 05:37:02;;;;;;;9.65;1.30;;;10.30;99.90;;;;;;5088565;28;20067;-73
2022/09/16 05:39:27;;;;;;;7.90;1.85;;;10.70;99.90;;;;;;5087833;28;20084;-73
2022/09/16 05:41:58;;;;;;;12.35;1.73;;;10.30;99.90;;;;;;5088171;28;20067;-73
2022/09/16 05:44:25;;;;;;;15.27;2.20;;;10.40;99.90;;;;;;5085671;28;20055;-73
2022/09/16 05:46:51;;;;;;;9.68;1.98;;;10.40;99.90;;;;;;5089065;28;20544;-73
2022/09/16 05:49:19;;;;;;;16.33;2.08;;;10.40;99.90;;;;;;5071280;28;20182;-73
2022/09/16 05:51:46;;;;;;;11.68;1.88;;;10.40;99.90;;;;;;5089409;28;20506;-73
2022/09/16 05:54:12;;;;;;;9.57;1.42;;;10.40;99.90;;;;;;5087883;28;20501;-73
2022/09/16 05:56:37;;;;;;;8.93;1.05;;;10.50;99.90;;;;;;5087716;28;20075;-73
2022/09/16 05:59:03;;;;;;;8.95;1.60;;;10.50;99.90;;;;;;5071184;28;20104;-73
2022/09/16 06:01:32;;;;;;;15.57;1.60;;;10.50;99.90;;;;;;5088966;28;20040;-73
2022/09/16 06:04:01;;;;;;;10.13;1.77;;;10.60;99.90;;;;;;5085643;28;20080;-73
2022/09/16 06:06:32;;;;;;;10.35;1.67;;;10.70;99.90;;;;;;5079702;28;20277;-73
2022/09/16 06:09:12;;;;;;;8.90;1.17;;;10.60;99.90;;;;;;5087684;28;20128;-73
2022/09/16 06:11:41;;;;;;;6.97;1.40;;;10.60;99.90;;;;;;5082771;28;20036;-73
2022/09/16 06:14:08;;;;;;;12.25;1.80;;;10.60;99.90;;;;;;5067660;28;20048;-73
2022/09/16 06:16:34;;;;;;;13.25;2.35;;;10.60;99.90;;;;;;5084668;28;20070;-74
2022/09/16 06:19:03;;;;;;;15.55;3.55;;;10.60;99.90;;;;;;5087705;28;20491;-74
2022/09/16 06:21:29;;;;;;;14.02;2.33;;;10.60;99.90;;;;;;5086892;28;20379;-73
2022/09/16 06:23:55;;;;;;;8.60;1.42;;;10.60;99.90;;;;;;5085423;28;20044;-73
2022/09/16 06:26:24;;;;;;;11.00;2.40;;;10.70;99.90;;;;;;5087258;28;20048;-74
2022/09/16 06:28:51;;;;;;;7.93;1.45;;;10.60;99.90;;;;;;5087374;28;20051;-74
2022/09/16 06:31:19;;;;;;;7.72;1.25;;;10.70;99.90;;;;;;5070713;28;20067;-74
2022/09/16 06:33:45;;;;;;;9.23;1.67;;;10.70;99.90;;;;;;5089220;28;20054;-73
2022/09/16 06:36:16;;;;;;;8.80;1.77;;;10.70;99.90;;;;;;5069092;28;20036;-74
2022/09/16 06:38:43;;;;;;;14.32;1.40;;;11.80;99.90;;;;;;5076390;28;20449;-77
2022/09/16 06:41:10;;;;;;;12.65;1.83;;;10.80;99.90;;;;;;5079309;28;20044;-72
2022/09/16 06:43:36;;;;;;;10.30;1.30;;;10.90;99.90;;;;;;5080924;28;20047;-70
2022/09/16 06:46:12;;;;;;;11.15;1.00;;;10.90;99.90;;;;;;5086634;28;20123;-77
2022/09/16 06:48:39;;;;;;;10.27;1.67;;;11.00;99.90;;;;;;5080880;28;20065;-73
2022/09/16 06:51:09;;;;;;;9.65;1.45;;;11.10;99.90;;;;;;5066327;28;20052;-72
2022/09/16 06:53:36;;;;;;;12.30;1.77;;;11.20;99.90;;;;;;5081324;28;20442;-72
2022/09/16 06:56:07;;;;;;;9.27;1.10;;;11.20;99.90;;;;;;5081185;28;20483;-72
2022/09/16 06:58:34;;;;;;;9.02;1.02;;;11.30;99.90;;;;;;5078885;28;20032;-72
2022/09/16 07:01:11;;;;;;;10.73;1.58;;;11.30;99.90;;;;;;5079010;28;20028;-72
2022/09/16 07:03:39;;;;;;;13.50;2.47;;;11.60;99.90;;;;;;5058647;28;20048;-72
2022/09/16 07:06:05;;;;;;;13.48;1.23;;;11.40;99.90;;;;;;5078553;28;20054;-72
2022/09/16 07:08:33;;;;;;;12.85;2.17;;;11.40;99.90;;;;;;5080093;28;20047;-72
2022/09/16 07:11:04;;;;;;;15.05;2.45;;;11.40;99.90;;;;;;5081114;28;20044;-72
2022/09/16 07:13:30;;;;;;;10.82;1.10;;;11.50;99.90;;;;;;5061473;28;20048;-72
2022/09/16 07:16:04;;;;;;;8.88;1.95;;;11.50;99.90;;;;;;5078383;28;20048;-72
2022/09/16 07:18:31;;;;;;;8.30;1.48;;;11.50;99.90;;;;;;5081051;28;20491;-72
2022/09/16 07:21:14;;;;;;;11.27;1.75;;;11.50;99.90;;;;;;5079130;28;20037;-72
2022/09/16 07:23:41;;;;;;;11.32;1.35;;;11.50;99.90;;;;;;5076984;28;20079;-72
2022/09/16 07:26:19;;;;;;;18.10;1.58;;;11.60;99.90;;;;;;5070603;28;20036;-73
2022/09/16 07:28:46;;;;;;;12.60;1.70;;;11.70;99.90;;;;;;5116024;28;20040;-73
2022/09/16 07:31:15;;;;;;;11.45;1.48;;;11.70;99.90;;;;;;5073488;28;20098;-72
2022/09/16 07:33:43;;;;;;;7.95;1.10;;;12.20;99.90;;;;;;5086354;28;20479;-72
2022/09/16 07:36:11;;;;;;;11.93;1.58;;;11.90;99.90;;;;;;5075672;28;20037;-72
2022/09/16 07:38:36;;;;;;;13.52;2.08;;;12.00;99.90;;;;;;5080744;28;20115;-73
2022/09/16 07:41:07;;;;;;;10.00;1.40;;;12.10;99.90;;;;;;5078965;28;20472;-73
2022/09/16 07:43:33;;;;;;;10.88;1.98;;;12.20;99.90;;;;;;5073498;28;20052;-72
2022/09/16 07:45:59;;;;;;;10.23;1.92;;;12.20;99.90;;;;;;5087929;28;20044;-72
2022/09/16 07:48:27;;;;;;;12.80;1.77;;;12.30;99.90;;;;;;5089971;28;20111;-72
2022/09/16 07:51:05;;;;;;;12.13;1.77;;;12.40;99.90;;;;;;5088849;28;20063;-72
2022/09/16 07:53:31;;;;;;;12.23;1.98;;;12.50;99.90;;;;;;5087878;28;20177;-72
2022/09/16 07:56:21;;;;;;;12.48;2.33;;;12.60;99.90;;;;;;5087716;28;20552;-72
2022/09/16 07:58:47;;;;;;;9.13;1.77;;;12.70;99.90;;;;;;5060097;28;20073;-75
2022/09/16 08:01:15;;;;;;;14.50;2.33;;;12.80;99.90;;;;;;5060305;28;20056;-75
2022/09/16 08:03:42;;;;;;;8.63;1.58;;;13.10;99.90;;;;;;5077490;28;20071;-73
2022/09/16 08:06:14;;;;;;;9.88;1.35;;;12.90;99.90;;;;;;5072728;28;20130;-74
2022/09/16 08:08:40;;;;;;;14.30;2.38;;;12.80;99.90;;;;;;5073564;28;20093;-74
2022/09/16 08:11:07;;;;;;;17.00;2.60;;;12.80;99.90;;;;;;5076658;28;20055;-74
2022/09/16 08:13:34;;;;;;;14.15;2.00;;;13.10;99.90;;;;;;5081743;28;20403;-74
2022/09/16 08:16:05;;;;;;;15.10;2.88;;;12.80;99.90;;;;;;5076781;28;20051;-72
2022/09/16 08:18:31;;;;;;;14.98;1.90;;;12.90;99.90;;;;;;4383758;28;10000703;-73
2022/09/16 08:21:00;;;;;;;20.75;2.47;;;12.90;99.90;;;;;;5081309;28;20763;-71
2022/09/16 08:23:25;;;;;;;17.67;2.42;;;13.00;99.90;;;;;;5085587;28;20557;-72
2022/09/16 08:25:58;;;;;;;10.95;1.95;;;13.00;99.90;;;;;;5089692;28;20152;-71
2022/09/16 08:28:25;;;;;;;14.45;2.83;;;13.00;99.90;;;;;;5087399;28;20055;-72
2022/09/16 08:30:50;;;;;;;11.82;2.28;;;13.10;99.90;;;;;;5081781;28;20055;-72
2022/09/16 08:33:19;;;;;;;15.90;2.20;;;13.20;99.90;;;;;;5077643;28;20040;-73
2022/09/16 08:35:46;;;;;;;12.50;2.25;;;13.40;99.90;;;;;;5082688;28;20044;-72
2022/09/16 08:38:12;;;;;;;17.35;3.00;;;13.30;99.90;;;;;;5061780;28;20445;-72
2022/09/16 08:40:43;;;;;;;14.77;2.17;;;13.40;99.90;;;;;;5078211;28;20115;-72
2022/09/16 08:43:25;;;;;;;11.15;1.70;;;13.50;99.90;;;;;;5083229;28;20117;-73
2022/09/16 08:45:56;;;;;;;14.38;2.03;;;13.70;99.90;;;;;;5086020;28;20047;-73
2022/09/16 08:48:47;;;;;;;18.48;3.25;;;13.50;99.90;;;;;;5092738;28;20383;-73
2022/09/16 08:51:17;;;;;;;15.13;2.00;;;13.60;99.90;;;;;;5092863;28;20514;-72
2022/09/16 08:53:50;;;;;;;10.07;1.67;;;13.60;99.90;;;;;;5083569;28;20113;-73
2022/09/16 08:56:20;;;;;;;10.80;1.75;;;13.70;99.90;;;;;;5090730;28;20398;-73
2022/09/16 08:58:49;;;;;;;9.85;1.77;;;13.80;99.90;;;;;;5092367;28;20078;-73
2022/09/16 09:01:35;;;;;;;13.43;1.73;;;13.80;99.90;;;;;;5092419;28;20398;-73
2022/09/16 09:04:01;;;;;;;13.82;1.77;;;13.90;99.90;;;;;;5084655;28;20047;-73
2022/09/16 09:06:46;;;;;;;13.75;2.13;;;13.80;99.90;;;;;;5091367;28;20052;-73
2022/09/16 09:09:33;;;;;;;10.70;1.70;;;13.80;99.90;;;;;;5074091;28;20041;-73
2022/09/16 09:12:18;;;;;;;10.70;2.70;;;13.90;99.90;;;;;;5081410;28;20155;-72
2022/09/16 09:14:56;;;;;;;11.80;2.08;;;13.90;99.90;;;;;;5091382;28;20053;-73
2022/09/16 09:17:40;;;;;;;10.82;2.15;;;14.00;99.90;;;;;;5084233;28;20040;-73
2022/09/16 09:20:26;;;;;;;11.70;1.70;;;14.00;99.90;;;;;;5086210;28;20051;-73
2022/09/16 09:23:21;;;;;;;15.07;1.95;;;14.30;99.90;;;;;;5087552;28;20044;-73
2022/09/16 09:26:12;;;;;;;10.80;1.88;;;14.20;99.90;;;;;;5060433;28;20070;-73
2022/09/16 09:28:52;;;;;;;9.57;1.50;;;14.20;99.90;;;;;;5091182;28;20054;-73
2022/09/16 09:31:44;;;;;;;10.15;1.52;;;14.40;99.90;;;;;;5091224;28;20395;-73
2022/09/16 09:34:49;;;;;;;8.45;1.20;;;14.40;99.90;;;;;;5102591;28;20051;-73
2022/09/16 09:37:42;;;;;;;8.40;1.23;;;14.60;99.90;;;;;;5085596;28;20396;-72
2022/09/16 09:40:20;;;;;;;11.07;1.80;;;14.60;99.90;;;;;;5073251;28;20056;-73
2022/09/16 09:43:03;;;;;;;13.98;1.75;;;14.50;99.90;;;;;;5082458;28;20046;-73
2022/09/16 09:45:34;;;;;;;11.15;1.50;;;14.50;99.90;;;;;;5072244;28;20330;-73
2022/09/16 09:48:02;;;;;;;7.20;1.23;;;14.50;99.90;;;;;;5091973;28;20068;-73
2022/09/16 09:50:46;;;;;;;8.20;1.30;;;14.60;99.90;;;;;;5091581;28;20052;-72
2022/09/16 09:53:27;;;;;;;13.60;2.13;;;14.60;99.90;;;;;;5089586;28;20032;-74
2022/09/16 09:56:17;;;;;;;13.23;1.65;;;14.60;99.90;;;;;;5082553;28;20467;-73
2022/09/16 09:58:50;;;;;;;16.73;1.92;;;14.60;99.90;;;;;;5091042;28;20096;-73
2022/09/16 10:01:15;;;;;;;10.88;1.92;;;14.60;99.90;;;;;;5090370;28;20032;-73
2022/09/16 10:03:41;;;;;;;12.40;1.98;;;14.50;99.90;;;;;;5091058;28;20055;-73
2022/09/16 10:06:10;;;;;;;11.98;2.38;;;14.60;99.90;;;;;;5090661;28;20506;-73
2022/09/16 10:08:46;;;;;;;13.63;2.00;;;14.80;99.90;;;;;;5090280;28;20036;-73
2022/09/16 10:11:21;;;;;;;11.30;2.63;;;14.80;99.90;;;;;;5085015;28;20125;-73
2022/09/16 10:13:54;;;;;;;11.65;1.52;;;14.80;99.90;;;;;;5090326;28;20097;-73
2022/09/16 10:16:23;;;;;;;13.07;2.73;;;14.70;99.90;;;;;;5084397;28;20028;-73
2022/09/16 10:19:00;;;;;;;19.33;2.20;;;14.70;99.90;;;;;;5091413;28;20270;-73
2022/09/16 10:21:40;;;;;;;12.18;1.50;;;14.60;99.90;;;;;;5120156;27;20036;-73
2022/09/16 10:24:29;;;;;;;9.82;1.30;;;14.50;99.90;;;;;;5090851;28;20044;-73
2022/09/16 10:26:55;;;;;;;7.93;1.30;;;14.60;99.90;;;;;;5081166;28;20039;-75
2022/09/16 10:29:21;;;;;;;10.52;1.10;;;14.60;99.90;;;;;;5091049;28;20040;-73
2022/09/16 10:31:47;;;;;;;6.07;1.08;;;14.90;99.90;;;;;;5123879;27;20067;-73
2022/09/16 10:34:33;;;;;;;11.93;1.60;;;14.90;99.90;;;;;;5088988;28;20520;-73
2022/09/16 10:37:19;;;;;;;13.13;1.73;;;14.90;99.90;;;;;;5078864;28;20070;-73
2022/09/16 10:39:50;;;;;;;9.70;1.65;;;15.00;99.90;;;;;;5086393;28;20109;-74
2022/09/16 10:42:27;;;;;;;8.95;1.23;;;15.10;99.90;;;;;;5077763;28;20051;-76
2022/09/16 10:44:57;;;;;;;7.65;1.35;;;15.30;99.90;;;;;;5082558;28;20044;-73
2022/09/16 10:47:30;;;;;;;9.20;1.90;;;15.00;99.90;;;;;;5089154;28;20040;-74
2022/09/16 10:50:04;;;;;;;8.55;1.13;;;14.90;99.90;;;;;;5082406;28;20036;-74
2022/09/16 10:52:39;;;;;;;14.27;1.50;;;14.80;99.90;;;;;;5090153;28;20115;-73
2022/09/16 10:55:22;;;;;;;6.43;1.08;;;14.80;99.90;;;;;;5088539;28;20047;-73
2022/09/16 10:57:47;;;;;;;7.05;1.50;;;14.90;99.90;;;;;;5088691;28;20087;-74
2022/09/16 11:00:30;;;;;;;7.63;1.15;;;15.00;99.90;;;;;;5083425;28;20460;-74
2022/09/16 11:03:10;;;;;;;7.35;1.30;;;15.10;99.90;;;;;;5072644;28;20106;-73
2022/09/16 11:06:06;;;;;;;20.92;1.60;;;15.20;99.90;;;;;;5079850;28;20048;-75
2022/09/16 11:08:56;;;;;;;9.38;1.10;;;15.40;99.90;;;;;;5075639;28;20051;-76
2022/09/16 11:11:34;;;;;;;10.07;1.02;;;15.50;99.90;;;;;;5084443;28;20066;-76
2022/09/16 11:14:28;;;;;;;9.70;1.58;;;15.70;99.90;;;;;;5084531;28;20043;-75
2022/09/16 11:17:25;;;;;;;8.87;1.20;;;15.70;99.90;;;;;;5089385;28;20044;-75
2022/09/16 11:20:03;;;;;;;6.95;1.20;;;15.60;99.90;;;;;;5069405;28;20316;-73
2022/09/16 11:22:54;;;;;;;7.97;1.55;;;15.40;99.90;;;;;;5088841;28;20395;-72
2022/09/16 11:25:53;;;;;;;9.48;1.17;;;15.20;99.90;;;;;;5084840;28;20086;-76
2022/09/16 11:28:28;;;;;;;8.93;1.75;;;15.20;99.90;;;;;;5082510;28;20127;-78
2022/09/16 11:31:18;;;;;;;8.75;1.80;;;15.30;99.90;;;;;;5088130;28;20138;-74
2022/09/16 11:33:59;;;;;;;6.55;1.13;;;15.50;99.90;;;;;;5084009;28;20809;-73
2022/09/16 11:37:04;;;;;;;8.40;1.45;;;15.50;99.90;;;;;;5059475;28;20044;-73
2022/09/16 11:39:58;;;;;;;10.55;2.10;;;15.50;99.90;;;;;;5089694;28;20063;-72
2022/09/16 11:42:45;;;;;;;17.25;2.35;;;15.40;99.90;;;;;;5117991;28;20471;-73
2022/09/16 11:45:30;;;;;;;15.48;2.22;;;15.30;99.90;;;;;;5082196;28;20043;-74
2022/09/16 11:48:42;;;;;;;7.00;1.30;;;15.40;99.90;;;;;;5089916;28;20048;-74
2022/09/16 11:51:31;;;;;;;12.50;2.00;;;15.50;99.90;;;;;;5077975;28;20087;-73
2022/09/16 11:54:37;;;;;;;11.77;2.10;;;15.70;99.90;;;;;;5071471;28;20043;-72
2022/09/16 11:57:09;;;;;;;6.65;1.40;;;15.80;99.90;;;;;;5081465;28;20539;-73
2022/09/16 11:59:40;;;;;;;12.13;1.83;;;15.90;99.90;;;;;;5093236;28;20043;-72
2022/09/16 12:02:28;;;;;;;14.93;1.95;;;16.00;99.90;;;;;;5082884;28;20113;-72
2022/09/16 12:05:24;;;;;;;8.38;1.52;;;16.10;99.90;;;;;;5073633;28;20074;-72
2022/09/16 12:08:01;;;;;;;16.42;2.08;;;16.10;99.90;;;;;;5093902;28;20048;-72
2022/09/16 12:10:35;;;;;;;12.20;2.33;;;16.20;99.90;;;;;;5093870;28;20040;-73
2022/09/16 12:13:09;;;;;;;11.35;2.22;;;16.40;99.90;;;;;;5074546;28;20451;-72
2022/09/16 12:15:50;;;;;;;14.15;1.80;;;16.50;99.90;;;;;;5092863;28;20040;-71
2022/09/16 12:18:31;;;;;;;11.73;2.17;;;16.70;99.90;;;;;;5086723;28;20068;-72
2022/09/16 12:21:07;;;;;;;10.88;2.60;;;16.70;99.90;;;;;;5090142;28;20147;-72
2022/09/16 12:23:44;;;;;;;16.42;2.50;;;16.70;99.90;;;;;;5093699;28;20028;-73
2022/09/16 12:26:24;;;;;;;11.70;1.95;;;16.60;99.90;;;;;;5083697;28;20040;-73
2022/09/16 12:29:29;;;;;;;11.80;1.83;;;16.40;99.90;;;;;;5091988;28;20040;-73
2022/09/16 12:32:11;;;;;;;15.32;2.15;;;16.20;99.90;;;;;;5091446;28;20111;-75
2022/09/16 12:34:54;;;;;;;11.10;2.17;;;16.20;99.90;;;;;;5088461;28;20502;-75
2022/09/16 12:37:38;;;;;;;16.17;2.65;;;16.10;99.90;;;;;;5121194;27;20043;-72
2022/09/16 12:40:05;;;;;;;21.40;3.00;;;16.10;99.90;;;;;;5092946;28;20046;-72
2022/09/16 12:42:37;;;;;;;11.85;2.25;;;16.10;99.90;;;;;;5091738;28;20289;-72
2022/09/16 12:45:49;;;;;;;12.20;2.30;;;16.00;99.90;;;;;;5092885;28;20079;-72
2022/09/16 12:48:52;;;;;;;21.38;3.35;;;16.10;99.90;;;;;;5064200;28;20097;-71
2022/09/16 12:51:44;;;;;;;18.08;3.15;;;16.10;99.90;;;;;;5090338;28;20667;-71
2022/09/16 12:54:49;;;;;;;13.02;2.53;;;16.10;99.90;;;;;;5118996;27;20066;-72
2022/09/16 12:57:40;;;;;;;14.82;2.67;;;16.00;99.90;;;;;;5118383;27;20044;-72
2022/09/16 13:00:18;;;;;;;13.57;1.85;;;16.00;99.90;;;;;;5090737;28;20043;-73
2022/09/16 13:02:52;;;;;;;8.77;1.50;;;16.00;99.90;;;;;;5091546;28;20048;-72
2022/09/16 13:05:24;;;;;;;11.63;1.52;;;16.00;99.90;;;;;;5083899;28;20039;-72
2022/09/16 13:07:54;;;;;;;10.60;1.55;;;16.00;99.90;;;;;;5092653;28;20519;-72
2022/09/16 13:10:30;;;;;;;8.80;1.40;;;15.90;99.90;;;;;;5091532;28;20536;-72
2022/09/16 13:12:58;;;;;;;11.43;1.20;;;15.80;99.90;;;;;;5092164;28;20047;-72
2022/09/16 13:15:26;;;;;;;10.43;1.10;;;15.80;99.90;;;;;;5073672;28;20437;-72
2022/09/16 13:17:52;;;;;;;5.20;1.20;;;15.70;99.90;;;;;;5088995;28;20521;-72